PWSweather.com
Personal Weather Stations
Station Observations
SUBOTICARS
SuboticaYU

SuboticaYU

Lat: 46.1296717, Lon: 19.641551

Elevation: 361

Station Type: Nexus

http://sumeteo.info

High Low Average
Temperature 88.7°F31.5°C 55.6°F13.1°C 74.6°F23.7°C
Dew Point 60.0°F15.6°C 50.5°F10.3°C 54.8°F12.7°C
Winds 8.1 mph 13.0 kmh Calm Calm 1.0 mph S1.6 kmh S
Wind Gusts 9.2 mph14.8 kmh -- 2.0 mph3.2 kmh
Humidity 90% 28% 55%
Pressure 29.69 in1005.4 mb 29.62 in1003.0 mb -
Precipitation 0.00 in0.0 mm - -
Hour Temp Dew Point Humidity Winds Wind Gusts Pressure Precip Precip Rate Daily Precip Total
12:00 AM 59.7°F15.4°C 53.2°F11.8°C 79% Calm Calm -- 29.63 in1003.4 mb - 0.00 in0.0 mm 0.00 in0.0 mm
12:10 AM 59.4°F15.2°C 52.8°F11.6°C 79% Calm Calm -- 29.63 in1003.4 mb - 0.00 in0.0 mm 0.00 in0.0 mm
12:15 AM 59.4°F15.2°C 52.8°F11.6°C 79% Calm Calm -- 29.64 in1003.7 mb - 0.00 in0.0 mm 0.00 in0.0 mm
12:20 AM 59.2°F15.1°C 53.0°F11.7°C 80% Calm Calm -- 29.64 in1003.7 mb - 0.00 in0.0 mm 0.00 in0.0 mm
12:25 AM 59.1°F15.1°C 53.0°F11.7°C 80% Calm Calm -- 29.64 in1003.7 mb - 0.00 in0.0 mm 0.00 in0.0 mm
12:30 AM 59.0°F15.0°C 52.8°F11.6°C 80% Calm Calm -- 29.64 in1003.7 mb - 0.00 in0.0 mm 0.00 in0.0 mm
12:35 AM 58.8°F14.9°C 53.0°F11.7°C 81% Calm Calm -- 29.64 in1003.7 mb - 0.00 in0.0 mm 0.00 in0.0 mm
12:40 AM 58.8°F14.9°C 53.0°F11.7°C 81% Calm Calm -- 29.64 in1003.7 mb - 0.00 in0.0 mm 0.00 in0.0 mm
12:45 AM 58.6°F14.8°C 52.8°F11.6°C 81% Calm Calm -- 29.63 in1003.4 mb - 0.00 in0.0 mm 0.00 in0.0 mm
12:50 AM 58.6°F14.8°C 52.7°F11.5°C 81% Calm Calm -- 29.63 in1003.4 mb - 0.00 in0.0 mm 0.00 in0.0 mm
12:55 AM 58.5°F14.7°C 52.6°F11.4°C 81% Calm Calm -- 29.63 in1003.4 mb - 0.00 in0.0 mm 0.00 in0.0 mm
01:00 AM 58.3°F14.6°C 52.5°F11.4°C 81% Calm Calm -- 29.63 in1003.4 mb - 0.00 in0.0 mm 0.00 in0.0 mm
01:10 AM 58.1°F14.5°C 52.3°F11.3°C 81% Calm Calm -- 29.63 in1003.4 mb - 0.00 in0.0 mm 0.00 in0.0 mm
01:15 AM 58.0°F14.4°C 52.2°F11.2°C 81% Calm Calm -- 29.63 in1003.4 mb - 0.00 in0.0 mm 0.00 in0.0 mm
01:20 AM 57.9°F14.4°C 52.1°F11.2°C 81% Calm Calm -- 29.63 in1003.4 mb - 0.00 in0.0 mm 0.00 in0.0 mm
01:25 AM 57.7°F14.3°C 52.3°F11.3°C 82% Calm Calm -- 29.63 in1003.4 mb - 0.00 in0.0 mm 0.00 in0.0 mm
01:30 AM 57.6°F14.2°C 52.1°F11.2°C 82% Calm Calm -- 29.64 in1003.7 mb - 0.00 in0.0 mm 0.00 in0.0 mm
01:35 AM 57.6°F14.2°C 52.1°F11.2°C 82% Calm Calm -- 29.64 in1003.7 mb - 0.00 in0.0 mm 0.00 in0.0 mm
01:40 AM 57.6°F14.2°C 52.1°F11.2°C 82% Calm Calm -- 29.64 in1003.7 mb - 0.00 in0.0 mm 0.00 in0.0 mm
01:45 AM 57.6°F14.2°C 52.1°F11.2°C 82% Calm Calm -- 29.63 in1003.4 mb - 0.00 in0.0 mm 0.00 in0.0 mm
01:50 AM 57.4°F14.1°C 51.9°F11.1°C 82% Calm Calm -- 29.63 in1003.4 mb - 0.00 in0.0 mm 0.00 in0.0 mm
01:55 AM 57.2°F14.0°C 51.8°F11.0°C 82% Calm Calm -- 29.63 in1003.4 mb - 0.00 in0.0 mm 0.00 in0.0 mm
02:00 AM 57.2°F14.0°C 51.8°F11.0°C 82% Calm Calm -- 29.63 in1003.4 mb - 0.00 in0.0 mm 0.00 in0.0 mm
02:10 AM 57.2°F14.0°C 52.1°F11.2°C 83% Calm Calm -- 29.63 in1003.4 mb - 0.00 in0.0 mm 0.00 in0.0 mm
02:15 AM 57.0°F13.9°C 51.6°F10.9°C 82% Calm Calm -- 29.64 in1003.7 mb - 0.00 in0.0 mm 0.00 in0.0 mm
02:20 AM 56.8°F13.8°C 51.7°F10.9°C 83% Calm Calm -- 29.64 in1003.7 mb - 0.00 in0.0 mm 0.00 in0.0 mm
02:25 AM 56.8°F13.8°C 51.7°F10.9°C 83% Calm Calm -- 29.64 in1003.7 mb - 0.00 in0.0 mm 0.00 in0.0 mm
02:30 AM 56.8°F13.8°C 52.1°F11.2°C 84% Calm Calm -- 29.63 in1003.4 mb - 0.00 in0.0 mm 0.00 in0.0 mm
02:35 AM 56.8°F13.8°C 51.7°F10.9°C 83% Calm Calm -- 29.63 in1003.4 mb - 0.00 in0.0 mm 0.00 in0.0 mm
02:40 AM 56.7°F13.7°C 51.6°F10.9°C 83% Calm Calm -- 29.63 in1003.4 mb - 0.00 in0.0 mm 0.00 in0.0 mm
02:45 AM 56.7°F13.7°C 51.6°F10.9°C 83% Calm Calm -- 29.64 in1003.7 mb - 0.00 in0.0 mm 0.00 in0.0 mm
02:50 AM 56.6°F13.7°C 51.5°F10.8°C 83% Calm Calm -- 29.64 in1003.7 mb - 0.00 in0.0 mm 0.00 in0.0 mm
02:55 AM 56.5°F13.6°C 51.4°F10.8°C 83% Calm Calm -- 29.64 in1003.7 mb - 0.00 in0.0 mm 0.00 in0.0 mm
03:00 AM 56.3°F13.5°C 51.2°F10.7°C 83% Calm Calm -- 29.64 in1003.7 mb - 0.00 in0.0 mm 0.00 in0.0 mm
03:10 AM 56.3°F13.5°C 51.2°F10.7°C 83% Calm Calm -- 29.64 in1003.7 mb - 0.00 in0.0 mm 0.00 in0.0 mm
03:15 AM 56.1°F13.4°C 51.0°F10.6°C 83% Calm Calm -- 29.64 in1003.7 mb - 0.00 in0.0 mm 0.00 in0.0 mm
03:20 AM 56.1°F13.4°C 51.0°F10.6°C 83% Calm Calm -- 29.64 in1003.7 mb - 0.00 in0.0 mm 0.00 in0.0 mm
03:25 AM 56.1°F13.4°C 51.4°F10.8°C 84% Calm Calm -- 29.64 in1003.7 mb - 0.00 in0.0 mm 0.00 in0.0 mm
03:30 AM 55.9°F13.3°C 51.2°F10.7°C 84% Calm Calm -- 29.64 in1003.7 mb - 0.00 in0.0 mm 0.00 in0.0 mm
03:35 AM 55.9°F13.3°C 50.9°F10.5°C 83% Calm Calm -- 29.64 in1003.7 mb - 0.00 in0.0 mm 0.00 in0.0 mm
03:40 AM 55.9°F13.3°C 51.2°F10.7°C 84% Calm Calm -- 29.64 in1003.7 mb - 0.00 in0.0 mm 0.00 in0.0 mm
03:45 AM 55.8°F13.2°C 51.1°F10.6°C 84% Calm Calm -- 29.63 in1003.4 mb - 0.00 in0.0 mm 0.00 in0.0 mm
03:50 AM 55.8°F13.2°C 51.0°F10.6°C 84% Calm Calm -- 29.63 in1003.4 mb - 0.00 in0.0 mm 0.00 in0.0 mm
03:55 AM 55.8°F13.2°C 51.0°F10.6°C 84% Calm Calm -- 29.63 in1003.4 mb - 0.00 in0.0 mm 0.00 in0.0 mm
04:00 AM 55.6°F13.1°C 50.8°F10.4°C 84% Calm Calm -- 29.65 in1004.1 mb - 0.00 in0.0 mm 0.00 in0.0 mm
04:10 AM 55.8°F13.2°C 51.6°F10.9°C 86% Calm Calm -- 29.65 in1004.1 mb - 0.00 in0.0 mm 0.00 in0.0 mm
04:15 AM 55.8°F13.2°C 51.6°F10.9°C 86% Calm Calm -- 29.64 in1003.7 mb - 0.00 in0.0 mm 0.00 in0.0 mm
04:20 AM 55.8°F13.2°C 51.6°F10.9°C 86% Calm Calm -- 29.64 in1003.7 mb - 0.00 in0.0 mm 0.00 in0.0 mm
04:25 AM 55.8°F13.2°C 51.6°F10.9°C 86% Calm Calm -- 29.64 in1003.7 mb - 0.00 in0.0 mm 0.00 in0.0 mm
04:30 AM 55.8°F13.2°C 51.6°F10.9°C 86% Calm Calm -- 29.64 in1003.7 mb - 0.00 in0.0 mm 0.00 in0.0 mm
04:35 AM 55.9°F13.3°C 51.8°F11.0°C 86% Calm Calm -- 29.64 in1003.7 mb - 0.00 in0.0 mm 0.00 in0.0 mm
04:40 AM 56.1°F13.4°C 52.0°F11.1°C 86% Calm Calm -- 29.64 in1003.7 mb - 0.00 in0.0 mm 0.00 in0.0 mm
04:45 AM 56.4°F13.6°C 52.3°F11.3°C 86% Calm Calm -- 29.65 in1004.1 mb - 0.00 in0.0 mm 0.00 in0.0 mm
04:50 AM 56.7°F13.7°C 52.5°F11.4°C 86% Calm Calm -- 29.65 in1004.1 mb - 0.00 in0.0 mm 0.00 in0.0 mm
04:55 AM 57.0°F13.9°C 53.2°F11.8°C 87% Calm Calm -- 29.65 in1004.1 mb - 0.00 in0.0 mm 0.00 in0.0 mm
05:00 AM 57.6°F14.2°C 53.7°F12.1°C 87% Calm Calm -- 29.65 in1004.1 mb - 0.00 in0.0 mm 0.00 in0.0 mm
05:10 AM 59.1°F15.1°C 56.2°F13.4°C 90% 2.3 mph NNE3.7 kmh NNE 3.5 mph5.6 kmh 29.65 in1004.1 mb - 0.00 in0.0 mm 0.00 in0.0 mm
05:15 AM 60.8°F16.0°C 57.5°F14.2°C 89% 2.3 mph NNE3.7 kmh NNE 2.3 mph3.7 kmh 29.65 in1004.1 mb - 0.00 in0.0 mm 0.00 in0.0 mm
05:20 AM 61.4°F16.3°C 57.1°F13.9°C 86% 1.2 mph NNE1.9 kmh NNE 1.2 mph1.9 kmh 29.65 in1004.1 mb - 0.00 in0.0 mm 0.00 in0.0 mm
05:25 AM 62.2°F16.8°C 58.0°F14.4°C 86% 1.2 mph ENE1.9 kmh ENE 1.2 mph1.9 kmh 29.65 in1004.1 mb - 0.00 in0.0 mm 0.00 in0.0 mm
05:30 AM 63.1°F17.3°C 57.6°F14.2°C 82% Calm Calm 1.2 mph1.9 kmh 29.65 in1004.1 mb - 0.00 in0.0 mm 0.00 in0.0 mm
05:35 AM 63.9°F17.7°C 58.3°F14.6°C 82% 1.2 mph ENE1.9 kmh ENE 2.3 mph3.7 kmh 29.65 in1004.1 mb - 0.00 in0.0 mm 0.00 in0.0 mm
05:40 AM 64.4°F18.0°C 58.4°F14.7°C 81% 1.2 mph NE1.9 kmh NE 2.3 mph3.7 kmh 29.65 in1004.1 mb - 0.00 in0.0 mm 0.00 in0.0 mm
05:45 AM 64.7°F18.2°C 59.1°F15.1°C 82% 2.3 mph NNW3.7 kmh NNW 2.3 mph3.7 kmh 29.66 in1004.4 mb - 0.00 in0.0 mm 0.00 in0.0 mm
05:50 AM 65.7°F18.7°C 59.7°F15.4°C 81% 1.2 mph N1.9 kmh N 2.3 mph3.7 kmh 29.66 in1004.4 mb - 0.00 in0.0 mm 0.00 in0.0 mm
05:55 AM 66.6°F19.2°C 58.8°F14.9°C 76% Calm Calm 1.2 mph1.9 kmh 29.66 in1004.4 mb - 0.00 in0.0 mm 0.00 in0.0 mm
06:00 AM 67.5°F19.7°C 59.3°F15.2°C 75% 1.2 mph WNW1.9 kmh WNW 2.3 mph3.7 kmh 29.66 in1004.4 mb - 0.00 in0.0 mm 0.00 in0.0 mm
06:10 AM 68.7°F20.4°C 58.9°F14.9°C 71% 1.2 mph NW1.9 kmh NW 2.3 mph3.7 kmh 29.66 in1004.4 mb - 0.00 in0.0 mm 0.00 in0.0 mm
06:15 AM 69.6°F20.9°C 59.8°F15.4°C 71% Calm Calm -- 29.67 in1004.7 mb - 0.00 in0.0 mm 0.00 in0.0 mm
06:20 AM 70.5°F21.4°C 59.9°F15.5°C 69% 1.2 mph WNW1.9 kmh WNW 2.3 mph3.7 kmh 29.67 in1004.7 mb - 0.00 in0.0 mm 0.00 in0.0 mm
06:25 AM 71.1°F21.7°C 60.0°F15.6°C 68% 1.2 mph WNW1.9 kmh WNW 1.2 mph1.9 kmh 29.67 in1004.7 mb - 0.00 in0.0 mm 0.00 in0.0 mm
06:30 AM 72.0°F22.2°C 60.0°F15.6°C 66% 1.2 mph W1.9 kmh W 2.3 mph3.7 kmh 29.67 in1004.7 mb - 0.00 in0.0 mm 0.00 in0.0 mm
06:35 AM 72.5°F22.5°C 59.2°F15.1°C 63% 1.2 mph WNW1.9 kmh WNW 2.3 mph3.7 kmh 29.67 in1004.7 mb - 0.00 in0.0 mm 0.00 in0.0 mm
06:40 AM 73.3°F22.9°C 58.5°F14.7°C 60% 2.3 mph WNW3.7 kmh WNW 1.2 mph1.9 kmh 29.67 in1004.7 mb - 0.00 in0.0 mm 0.00 in0.0 mm
06:45 AM 73.8°F23.2°C 57.6°F14.2°C 57% 1.2 mph SW1.9 kmh SW 2.3 mph3.7 kmh 29.67 in1004.7 mb - 0.00 in0.0 mm 0.00 in0.0 mm
06:50 AM 74.3°F23.5°C 57.6°F14.2°C 56% 2.3 mph SW3.7 kmh SW 2.3 mph3.7 kmh 29.67 in1004.7 mb - 0.00 in0.0 mm 0.00 in0.0 mm
06:55 AM 74.8°F23.8°C 59.1°F15.1°C 58% 1.2 mph W1.9 kmh W 1.2 mph1.9 kmh 29.67 in1004.7 mb - 0.00 in0.0 mm 0.00 in0.0 mm
07:00 AM 75.4°F24.1°C 58.1°F14.5°C 55% 1.2 mph WSW1.9 kmh WSW 1.2 mph1.9 kmh 29.68 in1005.1 mb - 0.00 in0.0 mm 0.00 in0.0 mm
07:10 AM 76.2°F24.6°C 57.3°F14.1°C 52% Calm Calm 1.2 mph1.9 kmh 29.68 in1005.1 mb - 0.00 in0.0 mm 0.00 in0.0 mm
07:15 AM 76.7°F24.8°C 57.2°F14.0°C 51% 1.2 mph SSE1.9 kmh SSE 1.2 mph1.9 kmh 29.68 in1005.1 mb - 0.00 in0.0 mm 0.00 in0.0 mm
07:20 AM 77.0°F25.0°C 55.8°F13.2°C 48% 1.2 mph SSW1.9 kmh SSW 1.2 mph1.9 kmh 29.68 in1005.1 mb - 0.00 in0.0 mm 0.00 in0.0 mm
07:25 AM 77.4°F25.2°C 57.3°F14.1°C 50% 1.2 mph NNW1.9 kmh NNW 2.3 mph3.7 kmh 29.68 in1005.1 mb - 0.00 in0.0 mm 0.00 in0.0 mm
07:30 AM 77.9°F25.5°C 57.2°F14.0°C 49% 2.3 mph NW3.7 kmh NW 2.3 mph3.7 kmh 29.69 in1005.4 mb - 0.00 in0.0 mm 0.00 in0.0 mm
07:35 AM 78.1°F25.6°C 57.3°F14.1°C 49% 1.2 mph NNW1.9 kmh NNW 2.3 mph3.7 kmh 29.69 in1005.4 mb - 0.00 in0.0 mm 0.00 in0.0 mm
07:40 AM 79.1°F26.2°C 58.3°F14.6°C 49% 1.2 mph E1.9 kmh E 1.2 mph1.9 kmh 29.69 in1005.4 mb - 0.00 in0.0 mm 0.00 in0.0 mm
07:45 AM 79.5°F26.4°C 58.7°F14.8°C 49% 1.2 mph NE1.9 kmh NE 2.3 mph3.7 kmh 29.68 in1005.1 mb - 0.00 in0.0 mm 0.00 in0.0 mm
07:50 AM 79.7°F26.5°C 57.7°F14.3°C 47% 2.3 mph N3.7 kmh N 2.3 mph3.7 kmh 29.68 in1005.1 mb - 0.00 in0.0 mm 0.00 in0.0 mm
07:55 AM 79.7°F26.5°C 58.8°F14.9°C 49% 1.2 mph ENE1.9 kmh ENE 1.2 mph1.9 kmh 29.68 in1005.1 mb - 0.00 in0.0 mm 0.00 in0.0 mm
08:00 AM 80.6°F27.0°C 57.9°F14.4°C 46% 2.3 mph NE3.7 kmh NE 2.3 mph3.7 kmh 29.68 in1005.1 mb - 0.00 in0.0 mm 0.00 in0.0 mm
08:10 AM 80.7°F27.1°C 57.4°F14.1°C 45% 1.2 mph S1.9 kmh S 2.3 mph3.7 kmh 29.68 in1005.1 mb - 0.00 in0.0 mm 0.00 in0.0 mm
08:15 AM 81.0°F27.2°C 59.5°F15.3°C 48% 1.2 mph SE1.9 kmh SE 1.2 mph1.9 kmh 29.68 in1005.1 mb - 0.00 in0.0 mm 0.00 in0.0 mm
08:20 AM 81.3°F27.4°C 58.6°F14.8°C 46% 2.3 mph NE3.7 kmh NE 3.5 mph5.6 kmh 29.68 in1005.1 mb - 0.00 in0.0 mm 0.00 in0.0 mm
08:25 AM 81.9°F27.7°C 58.4°F14.7°C 45% 3.5 mph SSE5.6 kmh SSE 3.5 mph5.6 kmh 29.68 in1005.1 mb - 0.00 in0.0 mm 0.00 in0.0 mm
08:30 AM 81.7°F27.6°C 58.3°F14.6°C 45% 3.5 mph E5.6 kmh E 5.8 mph9.3 kmh 29.68 in1005.1 mb - 0.00 in0.0 mm 0.00 in0.0 mm
08:35 AM 82.0°F27.8°C 56.7°F13.7°C 42% 2.3 mph E3.7 kmh E 2.3 mph3.7 kmh 29.68 in1005.1 mb - 0.00 in0.0 mm 0.00 in0.0 mm
08:40 AM 82.1°F27.8°C 58.1°F14.5°C 44% 2.3 mph E3.7 kmh E 3.5 mph5.6 kmh 29.68 in1005.1 mb - 0.00 in0.0 mm 0.00 in0.0 mm
08:45 AM 82.6°F28.1°C 56.5°F13.6°C 41% 2.3 mph NNE3.7 kmh NNE 3.5 mph5.6 kmh 29.68 in1005.1 mb - 0.00 in0.0 mm 0.00 in0.0 mm
08:50 AM 82.8°F28.2°C 58.0°F14.4°C 43% 1.2 mph NE1.9 kmh NE 2.3 mph3.7 kmh 29.68 in1005.1 mb - 0.00 in0.0 mm 0.00 in0.0 mm
08:55 AM 82.8°F28.2°C 56.0°F13.3°C 40% 2.3 mph SE3.7 kmh SE 3.5 mph5.6 kmh 29.68 in1005.1 mb - 0.00 in0.0 mm 0.00 in0.0 mm
09:00 AM 82.6°F28.1°C 55.1°F12.8°C 39% 2.3 mph SE3.7 kmh SE 3.5 mph5.6 kmh 29.68 in1005.1 mb - 0.00 in0.0 mm 0.00 in0.0 mm
09:10 AM 82.9°F28.3°C 57.5°F14.2°C 42% 2.3 mph W3.7 kmh W 2.3 mph3.7 kmh 29.68 in1005.1 mb - 0.00 in0.0 mm 0.00 in0.0 mm
09:15 AM 83.3°F28.5°C 57.8°F14.3°C 42% 4.6 mph SSE7.4 kmh SSE 4.6 mph7.4 kmh 29.68 in1005.1 mb - 0.00 in0.0 mm 0.00 in0.0 mm
09:20 AM 83.5°F28.6°C 57.3°F14.1°C 41% 3.5 mph SE5.6 kmh SE 5.8 mph9.3 kmh 29.68 in1005.1 mb - 0.00 in0.0 mm 0.00 in0.0 mm
09:25 AM 83.8°F28.8°C 58.3°F14.6°C 42% 4.6 mph SE7.4 kmh SE 5.8 mph9.3 kmh 29.68 in1005.1 mb - 0.00 in0.0 mm 0.00 in0.0 mm
09:30 AM 84.0°F28.9°C 58.5°F14.7°C 42% 5.8 mph SE9.3 kmh SE 8.1 mph13.0 kmh 29.68 in1005.1 mb - 0.00 in0.0 mm 0.00 in0.0 mm
09:35 AM 83.4°F28.6°C 55.2°F12.9°C 38% 4.6 mph SE7.4 kmh SE 4.6 mph7.4 kmh 29.68 in1005.1 mb - 0.00 in0.0 mm 0.00 in0.0 mm
09:40 AM 84.4°F29.1°C 56.7°F13.7°C 39% 2.3 mph SE3.7 kmh SE 2.3 mph3.7 kmh 29.68 in1005.1 mb - 0.00 in0.0 mm 0.00 in0.0 mm
09:45 AM 84.9°F29.4°C 57.9°F14.4°C 40% 2.3 mph NNE3.7 kmh NNE 2.3 mph3.7 kmh 29.68 in1005.1 mb - 0.00 in0.0 mm 0.00 in0.0 mm
09:50 AM 84.6°F29.2°C 56.9°F13.8°C 39% 4.6 mph S7.4 kmh S 6.9 mph11.1 kmh 29.68 in1005.1 mb - 0.00 in0.0 mm 0.00 in0.0 mm
09:55 AM 84.2°F29.0°C 55.1°F12.8°C 37% 2.3 mph NE3.7 kmh NE 3.5 mph5.6 kmh 29.68 in1005.1 mb - 0.00 in0.0 mm 0.00 in0.0 mm
10:00 AM 84.7°F29.3°C 57.0°F13.9°C 39% 4.6 mph ESE7.4 kmh ESE 5.8 mph9.3 kmh 29.68 in1005.1 mb - 0.00 in0.0 mm 0.00 in0.0 mm
10:10 AM 84.6°F29.2°C 56.2°F13.4°C 38% 2.3 mph ESE3.7 kmh ESE 2.3 mph3.7 kmh 29.68 in1005.1 mb - 0.00 in0.0 mm 0.00 in0.0 mm
10:15 AM 84.4°F29.1°C 54.5°F12.5°C 36% 2.3 mph NNE3.7 kmh NNE 3.5 mph5.6 kmh 29.68 in1005.1 mb - 0.00 in0.0 mm 0.00 in0.0 mm
10:20 AM 85.3°F29.6°C 56.8°F13.8°C 38% 4.6 mph SE7.4 kmh SE 5.8 mph9.3 kmh 29.68 in1005.1 mb - 0.00 in0.0 mm 0.00 in0.0 mm
10:25 AM 85.6°F29.8°C 53.2°F11.8°C 33% 3.5 mph SSW5.6 kmh SSW 3.5 mph5.6 kmh 29.68 in1005.1 mb - 0.00 in0.0 mm 0.00 in0.0 mm
10:30 AM 84.9°F29.4°C 54.2°F12.3°C 35% 3.5 mph SSW5.6 kmh SSW 3.5 mph5.6 kmh 29.68 in1005.1 mb - 0.00 in0.0 mm 0.00 in0.0 mm
10:35 AM 85.2°F29.6°C 55.3°F12.9°C 36% 2.3 mph SSW3.7 kmh SSW 4.6 mph7.4 kmh 29.68 in1005.1 mb - 0.00 in0.0 mm 0.00 in0.0 mm
10:40 AM 84.4°F29.1°C 55.2°F12.9°C 37% 1.2 mph E1.9 kmh E 1.2 mph1.9 kmh 29.68 in1005.1 mb - 0.00 in0.0 mm 0.00 in0.0 mm
10:45 AM 84.2°F29.0°C 54.4°F12.4°C 36% 2.3 mph NW3.7 kmh NW 3.5 mph5.6 kmh 29.68 in1005.1 mb - 0.00 in0.0 mm 0.00 in0.0 mm
10:50 AM 85.3°F29.6°C 55.3°F12.9°C 36% 2.3 mph NE3.7 kmh NE 3.5 mph5.6 kmh 29.68 in1005.1 mb - 0.00 in0.0 mm 0.00 in0.0 mm
10:55 AM 85.8°F29.9°C 57.3°F14.1°C 38% 2.3 mph NNE3.7 kmh NNE 4.6 mph7.4 kmh 29.68 in1005.1 mb - 0.00 in0.0 mm 0.00 in0.0 mm
11:00 AM 85.6°F29.8°C 54.8°F12.7°C 35% 1.2 mph S1.9 kmh S 2.3 mph3.7 kmh 29.68 in1005.1 mb - 0.00 in0.0 mm 0.00 in0.0 mm
11:10 AM 86.4°F30.2°C 56.3°F13.5°C 36% 3.5 mph ESE5.6 kmh ESE 3.5 mph5.6 kmh 29.68 in1005.1 mb - 0.00 in0.0 mm 0.00 in0.0 mm
11:15 AM 86.9°F30.5°C 55.2°F12.9°C 34% 3.5 mph ESE5.6 kmh ESE 5.8 mph9.3 kmh 29.68 in1005.1 mb - 0.00 in0.0 mm 0.00 in0.0 mm
11:20 AM 86.5°F30.3°C 55.6°F13.1°C 35% 8.1 mph SSW13.0 kmh SSW 9.2 mph14.8 kmh 29.68 in1005.1 mb - 0.00 in0.0 mm 0.00 in0.0 mm
11:25 AM 86.7°F30.4°C 54.2°F12.3°C 33% 6.9 mph SSW11.1 kmh SSW 6.9 mph11.1 kmh 29.68 in1005.1 mb - 0.00 in0.0 mm 0.00 in0.0 mm
11:30 AM 86.7°F30.4°C 53.3°F11.8°C 32% 4.6 mph SW7.4 kmh SW 5.8 mph9.3 kmh 29.68 in1005.1 mb - 0.00 in0.0 mm 0.00 in0.0 mm
11:35 AM 87.6°F30.9°C 55.7°F13.2°C 34% 3.5 mph E5.6 kmh E 4.6 mph7.4 kmh 29.68 in1005.1 mb - 0.00 in0.0 mm 0.00 in0.0 mm
11:40 AM 87.1°F30.6°C 54.5°F12.5°C 33% 2.3 mph NE3.7 kmh NE 3.5 mph5.6 kmh 29.68 in1005.1 mb - 0.00 in0.0 mm 0.00 in0.0 mm
11:45 AM 87.6°F30.9°C 54.1°F12.3°C 32% 4.6 mph SE7.4 kmh SE 5.8 mph9.3 kmh 29.67 in1004.7 mb - 0.00 in0.0 mm 0.00 in0.0 mm
11:50 AM 87.4°F30.8°C 54.0°F12.2°C 32% 3.5 mph NE5.6 kmh NE 3.5 mph5.6 kmh 29.67 in1004.7 mb - 0.00 in0.0 mm 0.00 in0.0 mm
11:55 AM 87.6°F30.9°C 51.4°F10.8°C 29% 3.5 mph W5.6 kmh W 5.8 mph9.3 kmh 29.67 in1004.7 mb - 0.00 in0.0 mm 0.00 in0.0 mm
12:00 PM 87.6°F30.9°C 52.4°F11.3°C 30% 2.3 mph ESE3.7 kmh ESE 3.5 mph5.6 kmh 29.67 in1004.7 mb - 0.00 in0.0 mm 0.00 in0.0 mm
12:10 PM 87.9°F31.1°C 52.6°F11.4°C 30% 3.5 mph NE5.6 kmh NE 3.5 mph5.6 kmh 29.67 in1004.7 mb - 0.00 in0.0 mm 0.00 in0.0 mm
12:15 PM 88.0°F31.1°C 52.7°F11.5°C 30% 4.6 mph E7.4 kmh E 3.5 mph5.6 kmh 29.67 in1004.7 mb - 0.00 in0.0 mm 0.00 in0.0 mm
12:20 PM 87.6°F30.9°C 51.4°F10.8°C 29% 2.3 mph NNW3.7 kmh NNW 2.3 mph3.7 kmh 29.67 in1004.7 mb - 0.00 in0.0 mm 0.00 in0.0 mm
12:25 PM 87.6°F30.9°C 50.5°F10.3°C 28% 4.6 mph NNE7.4 kmh NNE 4.6 mph7.4 kmh 29.67 in1004.7 mb - 0.00 in0.0 mm 0.00 in0.0 mm
12:30 PM 88.3°F31.3°C 52.9°F11.6°C 30% 2.3 mph ESE3.7 kmh ESE 3.5 mph5.6 kmh 29.67 in1004.7 mb - 0.00 in0.0 mm 0.00 in0.0 mm
12:35 PM 88.2°F31.2°C 52.8°F11.6°C 30% 3.5 mph ENE5.6 kmh ENE 5.8 mph9.3 kmh 29.67 in1004.7 mb - 0.00 in0.0 mm 0.00 in0.0 mm
12:40 PM 87.1°F30.6°C 51.9°F11.1°C 30% 3.5 mph SE5.6 kmh SE 3.5 mph5.6 kmh 29.67 in1004.7 mb - 0.00 in0.0 mm 0.00 in0.0 mm
12:45 PM 86.2°F30.1°C 51.1°F10.6°C 30% 2.3 mph NE3.7 kmh NE 2.3 mph3.7 kmh 29.66 in1004.4 mb - 0.00 in0.0 mm 0.00 in0.0 mm
12:50 PM 86.7°F30.4°C 51.6°F10.9°C 30% 2.3 mph SSW3.7 kmh SSW 3.5 mph5.6 kmh 29.66 in1004.4 mb - 0.00 in0.0 mm 0.00 in0.0 mm
12:55 PM 86.9°F30.5°C 52.6°F11.4°C 31% 3.5 mph SE5.6 kmh SE 5.8 mph9.3 kmh 29.66 in1004.4 mb - 0.00 in0.0 mm 0.00 in0.0 mm
01:00 PM 87.9°F31.1°C 52.6°F11.4°C 30% 4.6 mph S7.4 kmh S 5.8 mph9.3 kmh 29.66 in1004.4 mb - 0.00 in0.0 mm 0.00 in0.0 mm
01:10 PM 88.1°F31.2°C 51.8°F11.0°C 29% 4.6 mph E7.4 kmh E 4.6 mph7.4 kmh 29.66 in1004.4 mb - 0.00 in0.0 mm 0.00 in0.0 mm
01:15 PM 88.2°F31.2°C 56.3°F13.5°C 34% 1.2 mph NE1.9 kmh NE 1.2 mph1.9 kmh 29.65 in1004.1 mb - 0.00 in0.0 mm 0.00 in0.0 mm
01:20 PM 88.2°F31.2°C 52.8°F11.6°C 30% 6.9 mph ESE11.1 kmh ESE 5.8 mph9.3 kmh 29.65 in1004.1 mb - 0.00 in0.0 mm 0.00 in0.0 mm
01:25 PM 88.0°F31.1°C 52.7°F11.5°C 30% 3.5 mph S5.6 kmh S 5.8 mph9.3 kmh 29.65 in1004.1 mb - 0.00 in0.0 mm 0.00 in0.0 mm
01:30 PM 86.8°F30.4°C 52.6°F11.4°C 31% 3.5 mph WSW5.6 kmh WSW 4.6 mph7.4 kmh 29.65 in1004.1 mb - 0.00 in0.0 mm 0.00 in0.0 mm
01:35 PM 86.5°F30.3°C 53.1°F11.7°C 32% 3.5 mph SW5.6 kmh SW 3.5 mph5.6 kmh 29.65 in1004.1 mb - 0.00 in0.0 mm 0.00 in0.0 mm
01:40 PM 86.1°F30.1°C 51.9°F11.1°C 31% 4.6 mph SE7.4 kmh SE 4.6 mph7.4 kmh 29.65 in1004.1 mb - 0.00 in0.0 mm 0.00 in0.0 mm
01:45 PM 87.3°F30.7°C 52.0°F11.1°C 30% 4.6 mph SSW7.4 kmh SSW 5.8 mph9.3 kmh 29.64 in1003.7 mb - 0.00 in0.0 mm 0.00 in0.0 mm
01:50 PM 87.6°F30.9°C 52.4°F11.3°C 30% 2.3 mph E3.7 kmh E 2.3 mph3.7 kmh 29.64 in1003.7 mb - 0.00 in0.0 mm 0.00 in0.0 mm
01:55 PM 88.2°F31.2°C 52.8°F11.6°C 30% 4.6 mph ENE7.4 kmh ENE 4.6 mph7.4 kmh 29.64 in1003.7 mb - 0.00 in0.0 mm 0.00 in0.0 mm
02:00 PM 88.6°F31.4°C 54.1°F12.3°C 31% 2.3 mph E3.7 kmh E 3.5 mph5.6 kmh 29.64 in1003.7 mb - 0.00 in0.0 mm 0.00 in0.0 mm
02:10 PM 88.5°F31.4°C 53.2°F11.8°C 30% 3.5 mph E5.6 kmh E 3.5 mph5.6 kmh 29.64 in1003.7 mb - 0.00 in0.0 mm 0.00 in0.0 mm
02:15 PM 88.5°F31.4°C 53.1°F11.7°C 30% 3.5 mph NW5.6 kmh NW 3.5 mph5.6 kmh 29.63 in1003.4 mb - 0.00 in0.0 mm 0.00 in0.0 mm
02:20 PM 87.3°F30.7°C 52.9°F11.6°C 31% 2.3 mph ESE3.7 kmh ESE 2.3 mph3.7 kmh 29.63 in1003.4 mb - 0.00 in0.0 mm 0.00 in0.0 mm
02:25 PM 86.5°F30.3°C 53.2°F11.8°C 32% 1.2 mph S1.9 kmh S 3.5 mph5.6 kmh 29.63 in1003.4 mb - 0.00 in0.0 mm 0.00 in0.0 mm
02:30 PM 86.4°F30.2°C 53.0°F11.7°C 32% Calm Calm 1.2 mph1.9 kmh 29.64 in1003.7 mb - 0.00 in0.0 mm 0.00 in0.0 mm
02:35 PM 86.1°F30.1°C 51.9°F11.1°C 31% Calm Calm 1.2 mph1.9 kmh 29.64 in1003.7 mb - 0.00 in0.0 mm 0.00 in0.0 mm
02:40 PM 86.2°F30.1°C 54.6°F12.6°C 34% Calm Calm -- 29.64 in1003.7 mb - 0.00 in0.0 mm 0.00 in0.0 mm
02:45 PM 86.9°F30.5°C 50.8°F10.4°C 29% 2.3 mph W3.7 kmh W 2.3 mph3.7 kmh 29.64 in1003.7 mb - 0.00 in0.0 mm 0.00 in0.0 mm
02:50 PM 87.6°F30.9°C 53.2°F11.8°C 31% 2.3 mph NW3.7 kmh NW 2.3 mph3.7 kmh 29.64 in1003.7 mb - 0.00 in0.0 mm 0.00 in0.0 mm
02:55 PM 87.8°F31.0°C 53.4°F11.9°C 31% 2.3 mph SSW3.7 kmh SSW 3.5 mph5.6 kmh 29.64 in1003.7 mb - 0.00 in0.0 mm 0.00 in0.0 mm
03:00 PM 86.8°F30.4°C 52.5°F11.4°C 31% 2.3 mph E3.7 kmh E 2.3 mph3.7 kmh 29.63 in1003.4 mb - 0.00 in0.0 mm 0.00 in0.0 mm
03:10 PM 86.0°F30.0°C 52.7°F11.5°C 32% 1.2 mph ESE1.9 kmh ESE 2.3 mph3.7 kmh 29.63 in1003.4 mb - 0.00 in0.0 mm 0.00 in0.0 mm
03:15 PM 86.4°F30.2°C 52.2°F11.2°C 31% 1.2 mph NE1.9 kmh NE 2.3 mph3.7 kmh 29.62 in1003.0 mb - 0.00 in0.0 mm 0.00 in0.0 mm
03:20 PM 87.4°F30.8°C 52.2°F11.2°C 30% 2.3 mph SE3.7 kmh SE 2.3 mph3.7 kmh 29.62 in1003.0 mb - 0.00 in0.0 mm 0.00 in0.0 mm
03:25 PM 87.8°F31.0°C 52.5°F11.4°C 30% 2.3 mph NE3.7 kmh NE 3.5 mph5.6 kmh 29.62 in1003.0 mb - 0.00 in0.0 mm 0.00 in0.0 mm
03:30 PM 88.2°F31.2°C 53.8°F12.1°C 31% 1.2 mph E1.9 kmh E 2.3 mph3.7 kmh 29.62 in1003.0 mb - 0.00 in0.0 mm 0.00 in0.0 mm
03:35 PM 88.0°F31.1°C 52.7°F11.5°C 30% 3.5 mph SE5.6 kmh SE 6.9 mph11.1 kmh 29.62 in1003.0 mb - 0.00 in0.0 mm 0.00 in0.0 mm
03:40 PM 88.0°F31.1°C 51.8°F11.0°C 29% 2.3 mph E3.7 kmh E 3.5 mph5.6 kmh 29.62 in1003.0 mb - 0.00 in0.0 mm 0.00 in0.0 mm
03:45 PM 88.3°F31.3°C 53.9°F12.2°C 31% 4.6 mph SSE7.4 kmh SSE 5.8 mph9.3 kmh 29.62 in1003.0 mb - 0.00 in0.0 mm 0.00 in0.0 mm
03:50 PM 88.7°F31.5°C 52.4°F11.3°C 29% 2.3 mph S3.7 kmh S 2.3 mph3.7 kmh 29.62 in1003.0 mb - 0.00 in0.0 mm 0.00 in0.0 mm
03:55 PM 88.5°F31.4°C 52.2°F11.2°C 29% 2.3 mph S3.7 kmh S 3.5 mph5.6 kmh 29.62 in1003.0 mb - 0.00 in0.0 mm 0.00 in0.0 mm
04:00 PM 88.6°F31.4°C 53.2°F11.8°C 30% 4.6 mph SSE7.4 kmh SSE 6.9 mph11.1 kmh 29.62 in1003.0 mb - 0.00 in0.0 mm 0.00 in0.0 mm
04:10 PM 88.5°F31.4°C 52.2°F11.2°C 29% 3.5 mph SE5.6 kmh SE 4.6 mph7.4 kmh 29.62 in1003.0 mb - 0.00 in0.0 mm 0.00 in0.0 mm
04:15 PM 88.2°F31.2°C 51.9°F11.1°C 29% 3.5 mph SE5.6 kmh SE 3.5 mph5.6 kmh 29.62 in1003.0 mb - 0.00 in0.0 mm 0.00 in0.0 mm
04:20 PM 87.6°F30.9°C 52.4°F11.3°C 30% 5.8 mph SSE9.3 kmh SSE 6.9 mph11.1 kmh 29.62 in1003.0 mb - 0.00 in0.0 mm 0.00 in0.0 mm
04:25 PM 88.0°F31.1°C 51.7°F10.9°C 29% 2.3 mph SE3.7 kmh SE 2.3 mph3.7 kmh 29.62 in1003.0 mb - 0.00 in0.0 mm 0.00 in0.0 mm
04:30 PM 87.8°F31.0°C 51.6°F10.9°C 29% 2.3 mph S3.7 kmh S 3.5 mph5.6 kmh 29.62 in1003.0 mb - 0.00 in0.0 mm 0.00 in0.0 mm
04:35 PM 87.5°F30.8°C 51.3°F10.7°C 29% 2.3 mph SE3.7 kmh SE 4.6 mph7.4 kmh 29.62 in1003.0 mb - 0.00 in0.0 mm 0.00 in0.0 mm
04:40 PM 86.7°F30.4°C 50.7°F10.4°C 29% 3.5 mph SE5.6 kmh SE 3.5 mph5.6 kmh 29.62 in1003.0 mb - 0.00 in0.0 mm 0.00 in0.0 mm
04:45 PM 86.2°F30.1°C 51.1°F10.6°C 30% 3.5 mph E5.6 kmh E 3.5 mph5.6 kmh 29.62 in1003.0 mb - 0.00 in0.0 mm 0.00 in0.0 mm
04:50 PM 86.4°F30.2°C 51.3°F10.7°C 30% 4.6 mph S7.4 kmh S 5.8 mph9.3 kmh 29.62 in1003.0 mb - 0.00 in0.0 mm 0.00 in0.0 mm
04:55 PM 86.5°F30.3°C 51.4°F10.8°C 30% 3.5 mph SE5.6 kmh SE 3.5 mph5.6 kmh 29.62 in1003.0 mb - 0.00 in0.0 mm 0.00 in0.0 mm
05:00 PM 86.3°F30.2°C 51.2°F10.7°C 30% 2.3 mph S3.7 kmh S 3.5 mph5.6 kmh 29.62 in1003.0 mb - 0.00 in0.0 mm 0.00 in0.0 mm
05:10 PM 85.8°F29.9°C 52.5°F11.4°C 32% 3.5 mph SSW5.6 kmh SSW 3.5 mph5.6 kmh 29.62 in1003.0 mb - 0.00 in0.0 mm 0.00 in0.0 mm
05:15 PM 85.6°F29.8°C 50.6°F10.3°C 30% 2.3 mph S3.7 kmh S 3.5 mph5.6 kmh 29.63 in1003.4 mb - 0.00 in0.0 mm 0.00 in0.0 mm
05:20 PM 85.3°F29.6°C 51.2°F10.7°C 31% 2.3 mph NNW3.7 kmh NNW 3.5 mph5.6 kmh 29.63 in1003.4 mb - 0.00 in0.0 mm 0.00 in0.0 mm
05:25 PM 85.3°F29.6°C 51.2°F10.7°C 31% 2.3 mph SSE3.7 kmh SSE 3.5 mph5.6 kmh 29.63 in1003.4 mb - 0.00 in0.0 mm 0.00 in0.0 mm
05:30 PM 85.1°F29.5°C 51.9°F11.1°C 32% 2.3 mph S3.7 kmh S 2.3 mph3.7 kmh 29.62 in1003.0 mb - 0.00 in0.0 mm 0.00 in0.0 mm
05:35 PM 84.7°F29.3°C 51.6°F10.9°C 32% 1.2 mph S1.9 kmh S 3.5 mph5.6 kmh 29.62 in1003.0 mb - 0.00 in0.0 mm 0.00 in0.0 mm
05:40 PM 84.6°F29.2°C 51.5°F10.8°C 32% 1.2 mph SSE1.9 kmh SSE 1.2 mph1.9 kmh 29.62 in1003.0 mb - 0.00 in0.0 mm 0.00 in0.0 mm
05:45 PM 84.2°F29.0°C 52.0°F11.1°C 33% Calm Calm 1.2 mph1.9 kmh 29.62 in1003.0 mb - 0.00 in0.0 mm 0.00 in0.0 mm
05:50 PM 83.7°F28.7°C 53.9°F12.2°C 36% Calm Calm 1.2 mph1.9 kmh 29.62 in1003.0 mb - 0.00 in0.0 mm 0.00 in0.0 mm
05:55 PM 83.1°F28.4°C 54.1°F12.3°C 37% Calm Calm 1.2 mph1.9 kmh 29.62 in1003.0 mb - 0.00 in0.0 mm 0.00 in0.0 mm
06:00 PM 82.8°F28.2°C 53.8°F12.1°C 37% Calm Calm -- 29.63 in1003.4 mb - 0.00 in0.0 mm 0.00 in0.0 mm
06:10 PM 81.0°F27.2°C 54.4°F12.4°C 40% Calm Calm -- 29.63 in1003.4 mb - 0.00 in0.0 mm 0.00 in0.0 mm
06:15 PM 81.0°F27.2°C 55.7°F13.2°C 42% Calm Calm -- 29.62 in1003.0 mb - 0.00 in0.0 mm 0.00 in0.0 mm
06:20 PM 80.2°F26.8°C 56.3°F13.5°C 44% Calm Calm -- 29.62 in1003.0 mb - 0.00 in0.0 mm 0.00 in0.0 mm
06:25 PM 79.6°F26.4°C 56.4°F13.6°C 45% Calm Calm -- 29.62 in1003.0 mb - 0.00 in0.0 mm 0.00 in0.0 mm
06:30 PM 79.1°F26.2°C 56.5°F13.6°C 46% Calm Calm -- 29.63 in1003.4 mb - 0.00 in0.0 mm 0.00 in0.0 mm
06:35 PM 77.9°F25.5°C 56.6°F13.7°C 48% Calm Calm -- 29.63 in1003.4 mb - 0.00 in0.0 mm 0.00 in0.0 mm
06:40 PM 77.7°F25.4°C 57.0°F13.9°C 49% Calm Calm -- 29.63 in1003.4 mb - 0.00 in0.0 mm 0.00 in0.0 mm
06:45 PM 77.4°F25.2°C 57.3°F14.1°C 50% Calm Calm -- 29.63 in1003.4 mb - 0.00 in0.0 mm 0.00 in0.0 mm
06:50 PM 76.8°F24.9°C 57.3°F14.1°C 51% Calm Calm -- 29.63 in1003.4 mb - 0.00 in0.0 mm 0.00 in0.0 mm
06:55 PM 76.2°F24.6°C 57.2°F14.0°C 52% Calm Calm -- 29.63 in1003.4 mb - 0.00 in0.0 mm 0.00 in0.0 mm
07:00 PM 75.9°F24.4°C 57.1°F13.9°C 52% Calm Calm -- 29.63 in1003.4 mb - 0.00 in0.0 mm 0.00 in0.0 mm
07:15 PM 73.6°F23.1°C 57.9°F14.4°C 58% Calm Calm -- 29.63 in1003.4 mb - 0.00 in0.0 mm 0.00 in0.0 mm
07:20 PM 73.6°F23.1°C 57.4°F14.1°C 57% Calm Calm -- 29.63 in1003.4 mb - 0.00 in0.0 mm 0.00 in0.0 mm
07:25 PM 72.8°F22.7°C 57.2°F14.0°C 58% Calm Calm -- 29.63 in1003.4 mb - 0.00 in0.0 mm 0.00 in0.0 mm
07:30 PM 72.9°F22.7°C 57.2°F14.0°C 58% Calm Calm -- 29.64 in1003.7 mb - 0.00 in0.0 mm 0.00 in0.0 mm
07:35 PM 72.5°F22.5°C 56.9°F13.8°C 58% Calm Calm -- 29.64 in1003.7 mb - 0.00 in0.0 mm 0.00 in0.0 mm
07:40 PM 72.0°F22.2°C 56.8°F13.8°C 59% Calm Calm -- 29.64 in1003.7 mb - 0.00 in0.0 mm 0.00 in0.0 mm
07:45 PM 71.6°F22.0°C 57.0°F13.9°C 60% Calm Calm -- 29.64 in1003.7 mb - 0.00 in0.0 mm 0.00 in0.0 mm
07:50 PM 71.2°F21.8°C 57.1°F13.9°C 61% Calm Calm -- 29.64 in1003.7 mb - 0.00 in0.0 mm 0.00 in0.0 mm
07:55 PM 71.0°F21.7°C 57.3°F14.1°C 62% Calm Calm -- 29.64 in1003.7 mb - 0.00 in0.0 mm 0.00 in0.0 mm
08:00 PM 70.7°F21.5°C 57.0°F13.9°C 62% Calm Calm -- 29.64 in1003.7 mb - 0.00 in0.0 mm 0.00 in0.0 mm
08:10 PM 70.2°F21.2°C 57.0°F13.9°C 63% Calm Calm -- 29.64 in1003.7 mb - 0.00 in0.0 mm 0.00 in0.0 mm
08:15 PM 69.7°F20.9°C 56.5°F13.6°C 63% Calm Calm -- 29.64 in1003.7 mb - 0.00 in0.0 mm 0.00 in0.0 mm
08:20 PM 69.4°F20.8°C 56.7°F13.7°C 64% Calm Calm -- 29.64 in1003.7 mb - 0.00 in0.0 mm 0.00 in0.0 mm
08:25 PM 69.1°F20.6°C 56.8°F13.8°C 65% Calm Calm -- 29.64 in1003.7 mb - 0.00 in0.0 mm 0.00 in0.0 mm
08:30 PM 68.5°F20.3°C 59.2°F15.1°C 72% 2.3 mph WSW3.7 kmh WSW 3.5 mph5.6 kmh 29.65 in1004.1 mb - 0.00 in0.0 mm 0.00 in0.0 mm
08:35 PM 68.5°F20.3°C 57.1°F13.9°C 67% Calm Calm -- 29.65 in1004.1 mb - 0.00 in0.0 mm 0.00 in0.0 mm
08:40 PM 68.4°F20.2°C 56.6°F13.7°C 66% Calm Calm -- 29.65 in1004.1 mb - 0.00 in0.0 mm 0.00 in0.0 mm
08:45 PM 68.1°F20.1°C 56.3°F13.5°C 66% Calm Calm -- 29.65 in1004.1 mb - 0.00 in0.0 mm 0.00 in0.0 mm
08:50 PM 67.9°F19.9°C 56.1°F13.4°C 66% Calm Calm -- 29.66 in1004.4 mb - 0.00 in0.0 mm 0.00 in0.0 mm
08:55 PM 67.8°F19.9°C 56.9°F13.8°C 68% Calm Calm -- 29.66 in1004.4 mb - 0.00 in0.0 mm 0.00 in0.0 mm
09:00 PM 67.5°F19.7°C 56.5°F13.6°C 68% Calm Calm -- 29.66 in1004.4 mb - 0.00 in0.0 mm 0.00 in0.0 mm
09:10 PM 67.1°F19.5°C 56.2°F13.4°C 68% Calm Calm 2.3 mph3.7 kmh 29.65 in1004.1 mb - 0.00 in0.0 mm 0.00 in0.0 mm
09:15 PM 67.2°F19.6°C 56.3°F13.5°C 68% 2.3 mph WNW3.7 kmh WNW 3.5 mph5.6 kmh 29.65 in1004.1 mb - 0.00 in0.0 mm 0.00 in0.0 mm
09:20 PM 67.4°F19.7°C 56.4°F13.6°C 68% Calm Calm -- 29.64 in1003.7 mb - 0.00 in0.0 mm 0.00 in0.0 mm
09:25 PM 67.3°F19.6°C 57.6°F14.2°C 71% 1.2 mph WNW1.9 kmh WNW 1.2 mph1.9 kmh 29.64 in1003.7 mb - 0.00 in0.0 mm 0.00 in0.0 mm
09:30 PM 67.3°F19.6°C 57.6°F14.2°C 71% 1.2 mph WNW1.9 kmh WNW 2.3 mph3.7 kmh 29.65 in1004.1 mb - 0.00 in0.0 mm 0.00 in0.0 mm
09:35 PM 67.3°F19.6°C 56.8°F13.8°C 69% 1.2 mph WNW1.9 kmh WNW 1.2 mph1.9 kmh 29.65 in1004.1 mb - 0.00 in0.0 mm 0.00 in0.0 mm
09:40 PM 67.1°F19.5°C 57.0°F13.9°C 70% Calm Calm -- 29.65 in1004.1 mb - 0.00 in0.0 mm 0.00 in0.0 mm
09:45 PM 67.0°F19.4°C 56.9°F13.8°C 70% Calm Calm -- 29.65 in1004.1 mb - 0.00 in0.0 mm 0.00 in0.0 mm
09:50 PM 66.6°F19.2°C 56.5°F13.6°C 70% Calm Calm -- 29.65 in1004.1 mb - 0.00 in0.0 mm 0.00 in0.0 mm
09:55 PM 66.4°F19.1°C 56.3°F13.5°C 70% Calm Calm -- 29.65 in1004.1 mb - 0.00 in0.0 mm 0.00 in0.0 mm
10:00 PM 66.2°F19.0°C 56.5°F13.6°C 71% Calm Calm -- 29.65 in1004.1 mb - 0.00 in0.0 mm 0.00 in0.0 mm
10:10 PM 65.8°F18.8°C 56.2°F13.4°C 71% Calm Calm -- 29.65 in1004.1 mb - 0.00 in0.0 mm 0.00 in0.0 mm
10:15 PM 65.5°F18.6°C 56.3°F13.5°C 72% Calm Calm -- 29.65 in1004.1 mb - 0.00 in0.0 mm 0.00 in0.0 mm
10:20 PM 65.5°F18.6°C 56.2°F13.4°C 72% Calm Calm -- 29.65 in1004.1 mb - 0.00 in0.0 mm 0.00 in0.0 mm
10:25 PM 65.3°F18.5°C 56.4°F13.6°C 73% Calm Calm -- 29.65 in1004.1 mb - 0.00 in0.0 mm 0.00 in0.0 mm
10:30 PM 65.3°F18.5°C 57.2°F14.0°C 75% Calm Calm -- 29.65 in1004.1 mb - 0.00 in0.0 mm 0.00 in0.0 mm
10:35 PM 65.1°F18.4°C 57.4°F14.1°C 76% Calm Calm -- 29.65 in1004.1 mb - 0.00 in0.0 mm 0.00 in0.0 mm
10:40 PM 65.1°F18.4°C 58.4°F14.7°C 79% Calm Calm -- 29.65 in1004.1 mb - 0.00 in0.0 mm 0.00 in0.0 mm
10:45 PM 65.2°F18.4°C 57.1°F13.9°C 75% Calm Calm -- 29.65 in1004.1 mb - 0.00 in0.0 mm 0.00 in0.0 mm
10:50 PM 64.8°F18.2°C 56.3°F13.5°C 74% Calm Calm -- 29.66 in1004.4 mb - 0.00 in0.0 mm 0.00 in0.0 mm
10:55 PM 64.6°F18.1°C 56.1°F13.4°C 74% Calm Calm -- 29.66 in1004.4 mb - 0.00 in0.0 mm 0.00 in0.0 mm
11:00 PM 64.2°F17.9°C 56.1°F13.4°C 75% Calm Calm -- 29.65 in1004.1 mb - 0.00 in0.0 mm 0.00 in0.0 mm
11:10 PM 64.0°F17.8°C 56.3°F13.5°C 76% Calm Calm -- 29.64 in1003.7 mb - 0.00 in0.0 mm 0.00 in0.0 mm
11:15 PM 63.9°F17.7°C 55.8°F13.2°C 75% Calm Calm -- 29.65 in1004.1 mb - 0.00 in0.0 mm 0.00 in0.0 mm
11:20 PM 63.7°F17.6°C 55.6°F13.1°C 75% Calm Calm -- 29.65 in1004.1 mb - 0.00 in0.0 mm 0.00 in0.0 mm
11:25 PM 63.5°F17.5°C 56.9°F13.8°C 79% Calm Calm -- 29.65 in1004.1 mb - 0.00 in0.0 mm 0.00 in0.0 mm
11:30 PM 63.7°F17.6°C 57.7°F14.3°C 81% Calm Calm -- 29.65 in1004.1 mb - 0.00 in0.0 mm 0.00 in0.0 mm
11:35 PM 63.5°F17.5°C 56.5°F13.6°C 78% Calm Calm -- 29.65 in1004.1 mb - 0.00 in0.0 mm 0.00 in0.0 mm
11:40 PM 63.7°F17.6°C 57.7°F14.3°C 81% 2.3 mph NW3.7 kmh NW 2.3 mph3.7 kmh 29.65 in1004.1 mb - 0.00 in0.0 mm 0.00 in0.0 mm
11:45 PM 63.7°F17.6°C 57.0°F13.9°C 79% 1.2 mph NW1.9 kmh NW 1.2 mph1.9 kmh 29.65 in1004.1 mb - 0.00 in0.0 mm 0.00 in0.0 mm
11:50 PM 63.5°F17.5°C 56.5°F13.6°C 78% 1.2 mph NW1.9 kmh NW 1.2 mph1.9 kmh 29.65 in1004.1 mb - 0.00 in0.0 mm 0.00 in0.0 mm
11:55 PM 63.3°F17.4°C 56.3°F13.5°C 78% 1.2 mph NW1.9 kmh NW 1.2 mph1.9 kmh 29.65 in1004.1 mb - 0.00 in0.0 mm 0.00 in0.0 mm